Terminal Aerodrome Forecast
Issued by NWS

Home | Current Version | Previous Version | Text Only | Print | Product List | Glossary On
Versions: 1 2 3 4 5 6 7 8 9 10 11 12 13 14 15 16 17 18 19 20 21 22 23 24 25 26 27
000
FTUS46 KLOX 292300
TAFLAX
TAF
KLAX 292336Z 3000/3106 26011KT P6SM SCT150 BKN250
     FM300400 25007KT P6SM SCT150 BKN250
     FM300900 VRB03KT P6SM SCT015 BKN250
     FM301400 VRB03KT 4SM BR SCT150 BKN250
     FM301800 25008KT 6SM HZ SCT250
     FM302100 25011KT P6SM SCT250
     FM310400 26008KT P6SM SCT250=

USA.gov is the U.S. government's official web portal to all federal, state and local government web resources and services.